Portada
METAR-TAF:

METAR-TAF

Aeroports :

Aeroport de Kangerlussuaq

Kangerlussuaq, Grenlàndia

latitud: 67-01N, longitud: 050-42W, altitud: 50 m

Observació

L'informe es va fer fa 1 hora i 6 minuts, a les 00:50 UTC
Vent 3 kt del Oest/Sud-Oest
Temperatura 11°C
Humitat 71%
Pressió 1008 hPa
Visibilitat 10 km o més

METAR: BGSF 270050Z AUTO 25003KT 9999NDV BKN060/// 11/06 Q1008

Hora: 23:56 (01:56 UTC)

Pronòstic

L'informe es va fer fa 4 hores i 51 minuts, a les 21:05 UTC
Pronòstic vàlid del 26 a les 18 UTC al 26 a les 24 UTC
Vent 12 kt del Est/Nord-Est
Visibilitat 10 km o més
Cel ennuvolat a una alçada de 4500 ft
pluja
Temporalment
l' 26 a les 18 UTC al 26 a les 24 UTC
Vent 6 kt amb direcció variable
Núvols disperses a una alçada de 5000 ft
Cel ennuvolat a una alçada de 9000 ft

TAF: BGSF 262105Z 2618/2624 06012KT 9999 -RA BKN045 TEMPO 2618/2624 VRB06KT SCT050 BKN090

Observacions i pronòstics meteorològics de més de 4000 aeroports (METAR i TAF).

Les estacions disponibles són els punts grocs i vermells al mapa.

Posi el ratolí al punt desitjat per veure el nom de l'estació.

Feu clic per veure les observacions i els pronòstics meteorològics.

Per canviar el mapa: feu clic els botons verds amb una creu de color negre per apropar; al botó verd amb un guió per allunyar la imatge; o en les fletxes verdes per a mapes adjacents.


METAR-TAF: